Latest Coastal Weather Observations for Williamtown

IDN60701

Issued at 12:01 pm EST Tuesday 1 September 2015 (issued every 10 minutes, with the page automatically refreshed every 10 minutes)

About coastal observations | Map of coastal stations | Coastal observations for NSW | Marine services | Other Formats
Station Details ID: 061078 Name: WILLIAMTOWN RAAF Lat: -32.79 Lon: 151.84 Height: 9.0 m
Data from the previous 72 hours. | See also: Recent months at Williamtown
Date/Time
EST
Temp

°C
Wind Pressure Rain
since 9am
mm
Weather Cloud Vis
km
Sea
Height
m
Swell
Dir
 
Speed
knots
Gust
knots
hPa Trend Height
m
Period
s
Dir
01/11:30am 17.4 WNW 13 17 1015.3 - 0.0 - - 10 - - - -
01/11:00am 16.4 W 14 18 1015.8 - 0.0 - Mostly clear 10 - - - -
01/10:30am 15.7 WNW 14 20 1016.3 - 0.0 - Mostly clear 10 - - - -
01/10:00am 15.1 WNW 17 21 1016.4 - 0.0 - Mostly clear 10 - - - -
01/09:30am 13.7 WNW 16 21 1016.5 - 0.0 - Mostly clear 10 - - - -
01/09:00am 13.2 WNW 16 22 1016.5 R 0.4 Fine Mostly clear 40 - - - -
01/08:30am 11.9 WNW 17 21 1016.6 - 0.4 - Mostly clear 10 - - - -
01/08:00am 10.9 WNW 15 20 1016.5 - 0.4 - Mostly clear 10 - - - -
01/07:30am 9.9 WNW 14 18 1016.1 - 0.4 - Mostly clear 10 - - - -
01/07:00am 8.7 WNW 11 14 1015.9 - 0.4 - Mostly clear 10 - - - -
01/06:30am 8.1 WNW 14 17 1015.7 - 0.4 - Mostly clear 10 - - - -
01/06:00am 8.0 WNW 11 15 1015.2 F 0.4 Fine Mostly clear 40 - - - -
01/05:30am 7.8 WNW 11 14 1015.1 - 0.4 - - 10 - - - -
01/05:00am 7.7 WNW 10 14 1014.9 - 0.4 - - 10 - - - -
01/04:30am 7.9 WNW 9 11 1014.9 - 0.2 - - 10 - - - -
01/04:00am 8.3 WNW 11 14 1014.7 - 0.2 - - 10 - - - -
01/03:30am 8.7 NW 11 14 1014.6 - 0.2 - Partly cloudy 10 - - - -
01/03:00am 8.9 WNW 11 14 1014.7 F 0.2 - - 10 - - - -
01/02:30am 9.0 WNW 11 15 1014.7 - 0.2 - - 10 - - - -
01/02:00am 9.1 WNW 9 12 1015.0 - 0.2 - - 10 - - - -
01/01:30am 9.5 WNW 9 11 1015.1 - 0.2 - - 10 - - - -
01/01:00am 9.1 NW 8 9 1015.3 - 0.2 - - 10 - - - -
01/12:30am 9.3 NW 7 8 1015.4 - 0.2 - - 10 - - - -
01/12:00am 9.8 NW 7 7 1015.5 R 0.2 - - 10 - - - -
 
Date/Time
EST
Temp

°C
Wind Pressure Rain
since 9am
mm
Weather Cloud Vis
km
Sea
Height
m
Swell
Dir
 
Speed
knots
Gust
knots
hPa Trend Height
m
Period
s
Dir
31/11:30pm 10.7 NW 7 8 1015.5 - 0.2 - Partly cloudy 10 - - - -
31/11:00pm 11.4 NNW 7 8 1015.6 - 0.2 - Partly cloudy 10 - - - -
31/10:30pm 11.3 NW 7 10 1015.8 - 0.2 - Partly cloudy 10 - - - -
31/10:00pm 10.9 CALM 0 3 1015.6 - 0.2 - Partly cloudy 10 - - - -
31/09:30pm 11.2 NW 7 8 1015.8 - 0.2 - Partly cloudy 10 - - - -
31/09:00pm 11.7 NW 4 7 1015.8 R 0.2 Showers Cloudy 10 - - - -
31/08:30pm 11.8 NW 7 8 1015.6 - 0.0 - Partly cloudy 10 - - - -
31/08:00pm 10.5 NW 4 6 1015.4 - 0.0 - Mostly clear 10 - - - -
31/07:30pm 9.9 CALM 0 0 1015.1 - 0.0 - Mostly clear 10 - - - -
31/07:00pm 10.4 WSW 4 4 1014.8 - 0.0 - Mostly clear 10 - - - -
31/06:30pm 10.9 CALM 0 0 1014.6 - 0.0 - Partly cloudy 10 - - - -
31/06:00pm 11.5 S 5 5 1014.4 F 0.0 - Mostly clear 10 - - - -
31/05:30pm 13.6 SSE 5 6 1014.3 - 0.0 - Partly cloudy 10 - - - -
31/05:00pm 15.2 SSE 7 8 1014.3 - 0.0 - Partly cloudy 10 - - - -
31/04:30pm 15.9 SSE 8 9 1014.0 - 0.0 - Partly cloudy 10 - - - -
31/04:00pm 16.0 SSE 8 11 1013.9 - 0.0 - Partly cloudy 10 - - - -
31/03:30pm 16.3 SSE 7 11 1014.0 - 0.0 - Partly cloudy 10 - - - -
31/03:00pm 16.4 SSE 9 10 1014.2 R 0.0 Fine Mostly cloudy 40 - - - -
31/02:30pm 16.8 SSE 7 10 1014.3 - 0.0 - Partly cloudy 10 - - - -
31/02:00pm 15.7 SSE 8 11 1014.7 - 0.0 - Partly cloudy 10 - - - -
31/01:30pm 15.7 SSE 9 11 1014.8 - 0.0 - Mostly clear 10 - - - -
31/01:00pm 16.0 SSE 9 12 1015.0 - 0.0 - Partly cloudy 10 - - - -
31/12:30pm 18.3 W 8 12 1015.3 - 0.0 - Partly cloudy 10 - - - -
31/12:00pm 16.9 SW 9 15 1015.8 F 0.0 Fine Mostly clear 40 - - - -
31/11:30am 17.9 S 10 16 1016.2 - 0.0 - Mostly clear 10 - - - -
31/11:00am 16.8 SW 9 15 1016.6 - 0.0 - Mostly clear 10 - - - -
31/10:30am 16.7 SW 9 15 1016.8 - 0.0 - Mostly clear 10 - - - -
31/10:00am 16.0 WSW 10 14 1017.2 - 0.0 - Mostly clear 10 - - - -
31/09:30am 16.0 WSW 11 16 1017.4 - 0.0 - Mostly clear 10 - - - -
31/09:00am 14.9 WSW 9 14 1017.5 F 0.0 Fine Mostly clear 40 - - - -
31/08:30am 13.7 WSW 9 14 1017.3 - 0.0 - Mostly clear 10 - - - -
31/08:00am 11.8 W 8 10 1017.4 - 0.0 - Mostly clear 10 - - - -
31/07:30am 10.3 WNW 7 9 1017.2 - 0.0 - Mostly clear 10 - - - -
31/07:00am 8.7 WNW 7 8 1017.1 - 0.0 - Mostly clear 10 - - - -
31/06:30am 7.2 WNW 8 9 1016.8 - 0.0 - Mostly clear 10 - - - -
31/06:00am 7.3 WNW 8 9 1016.5 F 0.0 Fine Mostly clear 40 - - - -
31/05:30am 7.5 WNW 9 10 1016.5 - 0.0 - - 10 - - - -
31/05:00am 7.4 WNW 8 9 1016.4 - 0.0 - - 10 - - - -
31/04:30am 7.4 WNW 8 9 1016.5 - 0.0 - - 10 - - - -
31/04:00am 7.5 WNW 9 10 1016.5 - 0.0 - - 10 - - - -
31/03:30am 7.6 WNW 8 9 1016.5 - 0.0 - - 10 - - - -
31/03:00am 8.0 WNW 9 10 1016.8 F 0.0 - - 10 - - - -
31/02:30am 8.2 WNW 8 10 1017.1 - 0.0 - - 10 - - - -
31/02:00am 8.4 WNW 8 9 1017.6 - 0.0 - - 10 - - - -
31/01:30am 8.6 WNW 9 10 1017.8 - 0.0 - Partly cloudy 10 - - - -
31/01:00am 8.2 NW 8 8 1017.9 - 0.0 - Partly cloudy 10 - - - -
31/12:30am 8.4 NW 8 9 1018.2 - 0.0 - Partly cloudy 10 - - - -
31/12:00am 8.6 NW 6 7 1018.0 F 0.0 - Mostly cloudy 10 - - - -
 
Date/Time
EST
Temp

°C
Wind Pressure Rain
since 9am
mm
Weather Cloud Vis
km
Sea
Height
m
Swell
Dir
 
Speed
knots
Gust
knots
hPa Trend Height
m
Period
s
Dir
30/11:30pm 8.8 W 6 7 1018.1 - 0.0 - Partly cloudy 10 - - - -
30/11:00pm 8.7 NW 8 9 1017.9 - 0.0 - - 10 - - - -
30/10:30pm 9.0 NW 6 7 1018.2 - 0.0 - - 10 - - - -
30/10:00pm 10.1 W 7 7 1018.4 - 0.0 - - 10 - - - -
30/09:30pm 10.8 WSW 8 9 1018.4 - 0.0 - - 10 - - - -
30/09:00pm 10.0 WSW 6 7 1018.5 F 0.0 - - 10 - - - -
30/08:30pm 10.8 WSW 6 7 1018.4 - 0.0 - - 10 - - - -
30/08:00pm 10.9 WSW 6 7 1018.3 - 0.0 - - 10 - - - -
30/07:30pm 11.1 SW 5 6 1018.2 - 0.0 - - 10 - - - -
30/07:00pm 12.6 SW 5 7 1018.1 - 0.0 - - 10 - - - -
30/06:30pm 12.5 SSW 7 8 1017.9 - 0.0 - - 10 - - - -
30/06:00pm 13.5 SSW 7 9 1017.7 F 0.0 - - 10 - - - -
30/05:30pm 14.3 S 8 10 1017.5 - 0.0 - - 10 - - - -
30/05:00pm 15.5 S 12 16 1017.3 - 0.0 - - 10 - - - -
30/04:30pm 16.3 S 12 17 1017.1 - 0.0 - - 10 - - - -
30/04:00pm 16.6 S 14 19 1017.0 - 0.0 - - 10 - - - -
30/03:30pm 16.6 S 14 18 1017.0 - 0.0 - - 10 - - - -
30/03:00pm 16.9 S 13 16 1017.1 R 0.0 Fine Mostly clear 40 - - - -
30/02:30pm 17.1 S 13 17 1017.2 - 0.0 - Mostly clear 10 - - - -
30/02:00pm 17.3 SSE 13 20 1017.4 - 0.0 - Mostly clear 10 - - - -
30/01:30pm 17.1 S 13 16 1017.6 - 0.0 - - 10 - - - -
30/01:00pm 17.5 S 12 17 1017.9 - 0.0 - Mostly clear 10 - - - -
30/12:30pm 17.1 S 10 15 1018.3 - 0.0 - Mostly clear 10 - - - -
30/12:00pm 16.0 S 8 10 1018.8 F 0.0 Fine Mostly clear 40 - - - -
30/11:30am 16.8 SSW 4 8 1019.2 - 0.0 - Mostly clear 10 - - - -
30/11:00am 16.0 W 7 10 1019.7 - 0.0 - Mostly clear 10 - - - -
30/10:30am 15.5 WNW 9 14 1020.0 - 0.0 - Mostly clear 10 - - - -
30/10:00am 14.7 WNW 10 14 1020.2 - 0.0 - Mostly clear 10 - - - -
30/09:30am 13.6 WNW 13 16 1020.2 - 0.0 - Mostly clear 10 - - - -
30/09:00am 12.9 WNW 14 16 1020.3 F 0.0 Fine Mostly clear 40 - - - -
30/08:30am 11.8 WNW 13 18 1020.4 - 0.0 - Mostly clear 10 - - - -
30/08:00am 10.6 WNW 13 17 1020.3 - 0.0 - Mostly clear 10 - - - -
30/07:30am 9.4 WNW 11 14 1020.3 - 0.0 - Mostly clear 10 - - - -
30/07:00am 8.1 WNW 11 15 1019.9 - 0.0 - Mostly clear 10 - - - -
30/06:30am 7.0 WNW 10 12 1019.8 - 0.0 - Mostly clear 10 - - - -
30/06:00am 7.3 WNW 12 15 1019.7 F 0.0 Fine Mostly clear 40 - - - -
30/05:30am 7.7 WNW 10 15 1019.4 - 0.0 - - 10 - - - -
30/05:00am 7.8 WNW 10 12 1019.3 - 0.0 - - 10 - - - -
30/04:30am 7.3 WNW 7 9 1019.2 - 0.0 - - 10 - - - -
30/04:00am 7.4 WNW 8 9 1019.3 - 0.0 - - 10 - - - -
30/03:30am 7.2 WNW 8 10 1019.2 - 0.0 - - 10 - - - -
30/03:00am 7.7 NW 7 8 1019.3 F 0.0 - - 10 - - - -
30/02:30am 8.4 WNW 8 10 1019.5 - 0.0 - - 10 - - - -
30/02:00am 9.0 WNW 8 10 1019.7 - 0.0 - Partly cloudy 10 - - - -
30/01:30am 9.6 WNW 9 10 1020.0 - 0.0 - Cloudy 10 - - - -
30/01:00am 10.2 NW 8 9 1020.3 - 0.0 - Cloudy 10 - - - -
30/12:30am 10.2 NW 7 8 1020.5 - 0.0 - Cloudy 10 - - - -
30/12:00am 9.5 WNW 8 9 1020.4 R 0.0 - Mostly clear 10 - - - -
 
Date/Time
EST
Temp

°C
Wind Pressure Rain
since 9am
mm
Weather Cloud Vis
km
Sea
Height
m
Swell
Dir
 
Speed
knots
Gust
knots
hPa Trend Height
m
Period
s
Dir
29/11:30pm 9.6 WNW 8 9 1020.3 - 0.0 - - 10 - - - -
29/11:00pm 10.5 WNW 8 9 1020.3 - 0.0 - - 10 - - - -
29/10:30pm 12.0 W 10 16 1020.0 - 0.0 - Partly cloudy 10 - - - -
29/10:00pm 11.8 WNW 9 12 1020.2 - 0.0 - Partly cloudy 10 - - - -
29/09:30pm 12.4 WNW 11 14 1020.3 - 0.0 - - 10 - - - -
29/09:00pm 11.6 WNW 8 10 1020.5 R 0.0 - Mostly clear 10 - - - -
29/08:30pm 11.9 WNW 7 8 1020.2 - 0.0 - Partly cloudy 10 - - - -
29/08:00pm 13.5 NW 8 10 1019.9 - 0.0 - - 10 - - - -
29/07:30pm 12.7 NNW 6 7 1019.6 - 0.0 - - 10 - - - -
29/07:00pm 13.9 NNW 6 7 1019.2 - 0.0 - - 10 - - - -
29/06:30pm 14.2 NNW 7 8 1018.9 - 0.0 - Partly cloudy 10 - - - -
29/06:00pm 14.4 NW 6 7 1018.7 F 0.0 - Mostly clear 10 - - - -
29/05:30pm 16.0 NNW 7 8 1018.4 - 0.0 - Partly cloudy 10 - - - -
29/05:00pm 17.3 NW 8 11 1018.2 - 0.0 - - 10 - - - -
29/04:30pm 18.3 WNW 13 17 1018.2 - 0.0 - - 10 - - - -
29/04:00pm 19.1 NW 12 18 1018.1 - 0.0 - - 10 - - - -
29/03:30pm 19.6 NW 14 18 1018.2 - 0.0 - - 10 - - - -
29/03:00pm 19.6 WNW 14 20 1018.4 F 0.0 - - 10 - - - -
29/02:30pm 19.7 WNW 13 20 1018.7 - 0.0 - - 10 - - - -
29/02:00pm 19.4 NW 15 19 1019.1 - 0.0 - Partly cloudy 10 - - - -
29/01:30pm 19.3 NW 16 20 1019.3 - 0.0 - - 10 - - - -
29/01:00pm 18.9 WNW 17 21 1019.8 - 0.0 - - 10 - - - -
29/12:30pm 18.4 WNW 14 19 1020.1 - 0.0 - - 10 - - - -

Other Formats:

Comma delimited format used in spreadsheet applications
http://www.bom.gov.au/fwo/IDN60701/IDN60701.94776.axf

JavaScript Object Notation format (JSON) in row-major order
http://www.bom.gov.au/fwo/IDN60701/IDN60701.94776.json